Minaki, Canada
Current Conditions -  °F | °C
As of 1:00 AM on Friday 28 Nov 2014 (Local Time) from CYQK Reporting Station
Overcast Overcast  
Wind Chill: -16°   Ceiling: 14000
Heat Index:   Visibility: 15mi
Dew Point: -6°   Wind: 9mph
Humidity: 78%   Direction: 190°S
Pressure: 30.1"   Gusts: NA
Location:  49.99°N, 94.67°W
Report Text: CYQK 280700Z 19008KT 15SM OVC140 M18/M21 A3010 RMK AC8 SLP236
Loading
Personal Weather Stations






























Interactive Weather Map New forecast layout! Learn more

10-Day Weather Forecast

Advertisements
Track Severe Weather on mobile